Time,TemperatureF,DewpointF,PressureIn,WindDirection,WindDirectionDegrees,WindSpeedMPH,WindSpeedGustMPH,Humidity,HourlyPrecipIn,Conditions,Clouds,dailyrainin,SoftwareType,DateUTC
2013-01-24 00:04:00,31.8,14.0,30.60,SSE,148,0.0,-999.0,47,-99.99,,,0.00,weatherlink.com 1.10,2013-01-24 07:04:00,
2013-01-24 00:19:00,32.4,12.0,30.61,SSE,148,0.0,-999.0,43,-99.99,,,0.00,weatherlink.com 1.10,2013-01-24 07:19:00,
2013-01-24 00:34:00,32.9,13.0,30.59,SSE,148,0.0,-999.0,44,-99.99,,,0.00,weatherlink.com 1.10,2013-01-24 07:34:00,
2013-01-24 00:49:00,33.2,14.0,30.59,SSE,148,0.0,-999.0,45,-99.99,,,0.00,weatherlink.com 1.10,2013-01-24 07:49:00,
2013-01-24 01:04:00,32.9,10.0,30.57,SSE,148,0.0,-999.0,38,-99.99,,,0.00,weatherlink.com 1.10,2013-01-24 08:04:00,
2013-01-24 01:19:00,33.4,11.0,30.57,SSE,148,0.0,-999.0,40,-99.99,,,0.00,weatherlink.com 1.10,2013-01-24 08:19:00,
2013-01-24 01:34:00,33.4,13.0,30.57,SSE,148,0.0,-999.0,43,-99.99,,,0.00,weatherlink.com 1.10,2013-01-24 08:34:00,
2013-01-24 01:49:00,33.5,10.0,30.57,SSE,148,1.0,-999.0,38,-99.99,,,0.00,weatherlink.com 1.10,2013-01-24 08:49:00,
2013-01-24 02:04:00,34.3,10.0,30.55,SSE,148,0.0,-999.0,36,-99.99,,,0.00,weatherlink.com 1.10,2013-01-24 09:04:00,
2013-01-24 02:19:00,34.3,12.0,30.55,SSE,148,0.0,-999.0,40,-99.99,,,0.00,weatherlink.com 1.10,2013-01-24 09:19:00,
2013-01-24 02:34:00,33.5,11.0,30.55,SSE,148,0.0,-999.0,39,-99.99,,,0.00,weatherlink.com 1.10,2013-01-24 09:34:00,
2013-01-24 02:50:00,33.5,12.0,30.54,SSE,148,0.0,-999.0,41,-99.99,,,0.00,weatherlink.com 1.10,2013-01-24 09:50:00,
2013-01-24 03:04:00,33.4,7.0,30.55,SSE,148,0.0,-999.0,33,-99.99,,,0.00,weatherlink.com 1.10,2013-01-24 10:04:00,
2013-01-24 03:19:00,32.8,11.0,30.53,SSE,148,0.0,-999.0,41,-99.99,,,0.00,weatherlink.com 1.10,2013-01-24 10:19:00,
2013-01-24 03:35:00,32.4,7.0,30.55,SSE,148,0.0,-999.0,35,-99.99,,,0.00,weatherlink.com 1.10,2013-01-24 10:35:00,
2013-01-24 03:49:00,32.9,10.0,30.54,SSE,148,0.0,-999.0,39,-99.99,,,0.00,weatherlink.com 1.10,2013-01-24 10:49:00,
2013-01-24 04:04:00,32.5,12.0,30.59,SSE,148,0.0,-999.0,42,-99.99,,,0.00,weatherlink.com 1.10,2013-01-24 11:04:00,
2013-01-24 04:19:00,32.2,10.0,30.61,SSE,148,0.0,-999.0,39,-99.99,,,0.00,weatherlink.com 1.10,2013-01-24 11:19:00,
2013-01-24 04:34:00,31.9,11.0,30.60,SSE,148,1.0,-999.0,42,-99.99,,,0.00,weatherlink.com 1.10,2013-01-24 11:34:00,
2013-01-24 04:50:00,32.7,10.0,30.58,SSE,148,0.0,-999.0,39,-99.99,,,0.00,weatherlink.com 1.10,2013-01-24 11:50:00,
2013-01-24 05:05:00,32.5,6.0,30.64,SSE,148,0.0,-999.0,32,-99.99,,,0.00,weatherlink.com 1.10,2013-01-24 12:05:00,
2013-01-24 05:19:00,32.5,11.0,30.64,SSE,148,0.0,-999.0,41,-99.99,,,0.00,weatherlink.com 1.10,2013-01-24 12:19:00,
2013-01-24 05:35:00,32.4,7.0,30.65,SSE,148,0.0,-999.0,34,-99.99,,,0.00,weatherlink.com 1.10,2013-01-24 12:35:00,
2013-01-24 05:50:00,32.2,8.0,30.66,SSE,148,0.0,-999.0,36,-99.99,,,0.00,weatherlink.com 1.10,2013-01-24 12:50:00,
2013-01-24 06:04:00,32.8,9.0,30.66,SSE,148,0.0,-999.0,37,-99.99,,,0.00,weatherlink.com 1.10,2013-01-24 13:04:00,
2013-01-24 06:19:00,32.7,9.0,30.66,SSE,148,0.0,-999.0,37,-99.99,,,0.00,weatherlink.com 1.10,2013-01-24 13:19:00,
2013-01-24 06:34:00,32.8,8.0,30.66,SSE,148,0.0,-999.0,35,-99.99,,,0.00,weatherlink.com 1.10,2013-01-24 13:34:00,
2013-01-24 06:49:00,33.4,10.0,30.67,SSE,148,0.0,-999.0,37,-99.99,,,0.00,weatherlink.com 1.10,2013-01-24 13:49:00,
2013-01-24 07:04:00,34.0,9.0,30.65,SSE,148,0.0,-999.0,35,-99.99,,,0.00,weatherlink.com 1.10,2013-01-24 14:04:00,
2013-01-24 07:19:00,34.0,11.0,30.65,SSE,148,0.0,-999.0,38,-99.99,,,0.00,weatherlink.com 1.10,2013-01-24 14:19:00,
2013-01-24 07:35:00,34.0,7.0,30.65,SSE,148,0.0,-999.0,32,-99.99,,,0.00,weatherlink.com 1.10,2013-01-24 14:35:00,
2013-01-24 07:50:00,34.7,11.0,30.65,SSE,152,0.0,-999.0,37,-99.99,,,0.00,weatherlink.com 1.10,2013-01-24 14:50:00,
2013-01-24 08:05:00,34.7,13.0,30.62,SSE,152,0.0,-999.0,40,-99.99,,,0.00,weatherlink.com 1.10,2013-01-24 15:05:00,
2013-01-24 08:20:00,35.9,10.0,30.61,SSE,152,0.0,-999.0,34,-99.99,,,0.00,weatherlink.com 1.10,2013-01-24 15:20:00,
2013-01-24 08:35:00,38.3,13.0,30.60,SSE,148,0.0,-999.0,36,-99.99,,,0.00,weatherlink.com 1.10,2013-01-24 15:35:00,
2013-01-24 08:50:00,37.6,16.0,30.61,SSE,149,2.0,-999.0,41,-99.99,,,0.00,weatherlink.com 1.10,2013-01-24 15:50:00,
2013-01-24 09:05:00,36.8,14.0,30.63,SSE,149,0.0,-999.0,40,-99.99,,,0.00,weatherlink.com 1.10,2013-01-24 16:05:00,
2013-01-24 09:20:00,39.1,13.0,30.62,SSE,149,1.0,-999.0,34,-99.99,,,0.00,weatherlink.com 1.10,2013-01-24 16:20:00,
2013-01-24 09:35:00,44.3,12.0,30.58,SSE,149,0.0,-999.0,27,-99.99,,,0.00,weatherlink.com 1.10,2013-01-24 16:35:00,
2013-01-24 09:50:00,46.5,14.0,30.55,SSE,149,0.0,-999.0,27,-99.99,,,0.00,weatherlink.com 1.10,2013-01-24 16:50:00,
2013-01-24 10:05:00,47.0,15.0,30.55,SSE,149,0.0,-999.0,28,-99.99,,,0.00,weatherlink.com 1.10,2013-01-24 17:05:00,
2013-01-24 10:20:00,42.8,15.0,30.58,SSE,152,1.0,-999.0,32,-99.99,,,0.00,weatherlink.com 1.10,2013-01-24 17:20:00,
2013-01-24 10:35:00,42.3,16.0,30.59,SSE,156,2.0,-999.0,35,-99.99,,,0.00,weatherlink.com 1.10,2013-01-24 17:35:00,
2013-01-24 10:50:00,42.8,13.0,30.58,WSW,238,0.0,-999.0,30,-99.99,,,0.00,weatherlink.com 1.10,2013-01-24 17:50:00,
2013-01-24 11:05:00,43.8,14.0,30.59,SSE,160,0.0,-999.0,30,-99.99,,,0.00,weatherlink.com 1.10,2013-01-24 18:05:00,
2013-01-24 11:20:00,41.9,12.0,30.59,South,169,0.0,-999.0,29,-99.99,,,0.00,weatherlink.com 1.10,2013-01-24 18:20:00,
2013-01-24 11:35:00,44.1,13.0,30.57,South,176,2.0,-999.0,28,-99.99,,,0.00,weatherlink.com 1.10,2013-01-24 18:35:00,
2013-01-24 11:50:00,45.2,14.0,30.56,SE,125,0.0,-999.0,28,-99.99,,,0.00,weatherlink.com 1.10,2013-01-24 18:50:00,
2013-01-24 12:05:00,45.1,13.0,30.54,SE,142,0.0,-999.0,27,-99.99,,,0.00,weatherlink.com 1.10,2013-01-24 19:05:00,
2013-01-24 12:35:00,46.0,15.0,30.53,South,175,0.0,-999.0,29,-99.99,,,0.00,weatherlink.com 1.10,2013-01-24 19:35:00,
2013-01-24 12:50:00,45.2,15.0,30.52,WSW,255,0.0,-999.0,29,-99.99,,,0.00,weatherlink.com 1.10,2013-01-24 19:50:00,
2013-01-24 13:05:00,46.5,15.0,30.50,South,177,1.0,-999.0,28,-99.99,,,0.00,weatherlink.com 1.10,2013-01-24 20:05:00,
2013-01-24 13:20:00,45.7,16.0,30.49,SW,230,0.0,-999.0,31,-99.99,,,0.00,weatherlink.com 1.10,2013-01-24 20:20:00,
2013-01-24 13:35:00,46.1,16.0,30.48,SW,227,0.0,-999.0,30,-99.99,,,0.00,weatherlink.com 1.10,2013-01-24 20:35:00,
2013-01-24 13:50:00,47.4,19.0,30.47,SW,227,0.0,-999.0,32,-99.99,,,0.00,weatherlink.com 1.10,2013-01-24 20:50:00,
2013-01-24 14:05:00,47.0,17.0,30.48,SW,227,0.0,-999.0,30,-99.99,,,0.00,weatherlink.com 1.10,2013-01-24 21:05:00,
2013-01-24 14:20:00,47.0,15.0,30.48,SW,227,0.0,-999.0,28,-99.99,,,0.00,weatherlink.com 1.10,2013-01-24 21:20:00,
2013-01-24 14:35:00,45.4,16.0,30.50,SW,227,0.0,-999.0,31,-99.99,,,0.00,weatherlink.com 1.10,2013-01-24 21:35:00,
2013-01-24 14:50:00,45.1,16.0,30.50,SW,220,0.0,-999.0,31,-99.99,,,0.00,weatherlink.com 1.10,2013-01-24 21:50:00,
2013-01-24 15:05:00,45.1,17.0,30.50,SW,221,2.0,-999.0,33,-99.99,,,0.00,weatherlink.com 1.10,2013-01-24 22:05:00,
2013-01-24 15:19:00,45.4,18.0,30.50,SW,221,0.0,-999.0,34,-99.99,,,0.00,weatherlink.com 1.10,2013-01-24 22:19:00,
2013-01-24 15:35:00,45.2,18.0,30.51,SSW,200,0.0,-999.0,34,-99.99,,,0.00,weatherlink.com 1.10,2013-01-24 22:35:00,
2013-01-24 15:49:00,45.1,18.0,30.51,SSW,200,0.0,-999.0,34,-99.99,,,0.00,weatherlink.com 1.10,2013-01-24 22:49:00,
2013-01-24 16:04:00,45.2,22.0,30.51,ENE,77,0.0,-999.0,40,-99.99,,,0.00,weatherlink.com 1.10,2013-01-24 23:04:00,
2013-01-24 16:19:00,44.9,27.0,30.50,ENE,62,1.0,-999.0,50,-99.99,,,0.00,weatherlink.com 1.10,2013-01-24 23:19:00,
2013-01-24 16:34:00,43.3,23.0,30.53,ENE,62,0.0,-999.0,45,-99.99,,,0.00,weatherlink.com 1.10,2013-01-24 23:34:00,
2013-01-24 16:49:00,43.3,23.0,30.53,ENE,62,0.0,-999.0,44,-99.99,,,0.00,weatherlink.com 1.10,2013-01-24 23:49:00,
2013-01-24 17:04:00,43.2,24.0,30.54,ENE,62,0.0,-999.0,47,-99.99,,,0.00,weatherlink.com 1.10,2013-01-25 00:04:00,
2013-01-24 17:19:00,42.5,28.0,30.53,ENE,62,0.0,-999.0,58,-99.99,,,0.00,weatherlink.com 1.10,2013-01-25 00:19:00,
2013-01-24 17:34:00,41.9,29.0,30.54,ENE,62,0.0,-999.0,61,-99.99,,,0.00,weatherlink.com 1.10,2013-01-25 00:34:00,
2013-01-24 17:49:00,40.8,29.0,30.55,ENE,62,0.0,-999.0,63,-99.99,,,0.00,weatherlink.com 1.10,2013-01-25 00:49:00,
2013-01-24 18:20:00,40.1,30.0,30.55,North,8,1.0,-999.0,67,-99.99,,,0.00,weatherlink.com 1.10,2013-01-25 01:20:00,
2013-01-24 18:35:00,40.6,30.0,30.54,NW,326,1.0,-999.0,66,-99.99,,,0.00,weatherlink.com 1.10,2013-01-25 01:35:00,
2013-01-24 18:50:00,40.8,30.0,30.55,NNW,327,2.0,-999.0,65,-99.99,,,0.00,weatherlink.com 1.10,2013-01-25 01:50:00,
2013-01-24 19:05:00,41.1,29.0,30.53,NNW,328,0.0,-999.0,62,-99.99,,,0.00,weatherlink.com 1.10,2013-01-25 02:05:00,
2013-01-24 19:20:00,40.3,29.0,30.54,NNW,328,0.0,-999.0,64,-99.99,,,0.00,weatherlink.com 1.10,2013-01-25 02:20:00,
2013-01-24 19:35:00,39.8,29.0,30.55,NNW,328,0.0,-999.0,66,-99.99,,,0.00,weatherlink.com 1.10,2013-01-25 02:35:00,
2013-01-24 19:50:00,39.3,29.0,30.55,NNW,328,0.0,-999.0,67,-99.99,,,0.00,weatherlink.com 1.10,2013-01-25 02:50:00,
2013-01-24 20:05:00,38.8,29.0,30.53,NNW,328,0.0,-999.0,67,-99.99,,,0.00,weatherlink.com 1.10,2013-01-25 03:05:00,
2013-01-24 20:20:00,38.3,29.0,30.53,NNW,328,0.0,-999.0,69,-99.99,,,0.00,weatherlink.com 1.10,2013-01-25 03:20:00,
2013-01-24 20:35:00,38.3,29.0,30.52,NNW,328,0.0,-999.0,69,-99.99,,,0.00,weatherlink.com 1.10,2013-01-25 03:35:00,
2013-01-24 20:50:00,38.0,29.0,30.53,NNW,328,0.0,-999.0,69,-99.99,,,0.00,weatherlink.com 1.10,2013-01-25 03:50:00,
2013-01-24 21:05:00,37.9,29.0,30.47,NNW,328,0.0,-999.0,70,-99.99,,,0.00,weatherlink.com 1.10,2013-01-25 04:05:00,
2013-01-24 21:20:00,37.8,29.0,30.47,NNW,328,0.0,-999.0,71,-99.99,,,0.00,weatherlink.com 1.10,2013-01-25 04:20:00,
2013-01-24 21:35:00,37.3,29.0,30.46,NNW,328,0.0,-999.0,71,-99.99,,,0.00,weatherlink.com 1.10,2013-01-25 04:35:00,
2013-01-24 21:50:00,36.5,29.0,30.46,NNW,328,0.0,-999.0,73,-99.99,,,0.00,weatherlink.com 1.10,2013-01-25 04:50:00,
2013-01-24 22:05:00,35.9,28.0,30.50,NNW,328,0.0,-999.0,74,-99.99,,,0.00,weatherlink.com 1.10,2013-01-25 05:05:00,
2013-01-24 22:20:00,35.3,28.0,30.50,NNW,328,0.0,-999.0,76,-99.99,,,0.00,weatherlink.com 1.10,2013-01-25 05:20:00,
2013-01-24 22:35:00,34.7,28.0,30.50,NNW,328,0.0,-999.0,77,-99.99,,,0.00,weatherlink.com 1.10,2013-01-25 05:35:00,
2013-01-24 22:50:00,34.7,29.0,30.53,NNW,328,0.0,-999.0,78,-99.99,,,0.00,weatherlink.com 1.10,2013-01-25 05:50:00,
2013-01-24 23:05:00,35.2,29.0,30.50,NNW,328,0.0,-999.0,77,-99.99,,,0.00,weatherlink.com 1.10,2013-01-25 06:05:00,
2013-01-24 23:20:00,35.3,29.0,30.50,NNW,328,0.0,-999.0,77,-99.99,,,0.00,weatherlink.com 1.10,2013-01-25 06:20:00,
2013-01-24 23:35:00,35.8,29.0,30.51,NNW,328,0.0,-999.0,75,-99.99,,,0.00,weatherlink.com 1.10,2013-01-25 06:35:00,
2013-01-24 23:50:00,35.8,29.0,30.52,NNW,328,1.0,-999.0,75,-99.99,,,0.00,weatherlink.com 1.10,2013-01-25 06:50:00,